Terminal Aerodrome Forecast
Issued by NWS

Home | Current Version | Previous Version | Text Only | Print | Product List | Glossary On
Versions: 1 2 3 4 5 6 7 8 9 10 11 12 13
000
FTUS45 KRIW 272300
TAFCPR
TAF
KCPR 272320Z 2800/2824 VRB05KT P6SM VCSH SCT050 BKN080
     FM280300 VRB05KT P6SM VCSH BKN040
     FM280600 26006KT P6SM SCT060 BKN090
     FM280900 26005KT P6SM VCFG SCT005 SCT100
     FM281600 01010KT P6SM SCT080=

USA.gov is the U.S. government's official web portal to all federal, state and local government web resources and services.